Hlavní strana
METAR-TAF:

METAR-TAF

Letiště :

Independence, Kansas, Spojené státy americké

zeměpisná šířka: 37-09-30N, zeměpisná délka: 095-46-42W, výška: 251 m

Aktuální stav počasí

Zpráva byla vytvořena před 17 minutami, v 01:15 UTC
Severoseverozápadní vítr 14 kt
Teplota 3°C
Vlhkost vzduchu 93%
Tlak 1020 hPa
Viditelnost: 5.6 km
Oblačno až skoro zataženo ve výšce 1300 ft
Zataženo ve výšce 2000 ft
déšť, kouřmo

METAR: KIDP 260115Z AUTO 34014KT 3 1/2SM RA BR BKN013 OVC020 03/02 A3011 RMK AO2 P0001 T00300023

Čas: 19:32 (01:32 UTC)


TAF: chybějící

Stav a předpovědi počasí z více než 4 000 letišť (zprávy METAR a TAF).

Červené a žluté tečky na mapě představují dostupné meteorologické stanice.

Když kurzor umístíte na tečku, zobrazí se název stanice.

Pak kliknutím zobrazíte stav a předpověď počasí.

Chcete-li změnit mapu, kliknutím na zelené tlačítko se znaménkem +mapu přiblížíte, kliknutím na zelené tlačítko se znaménkem – mapu oddálíte a kliknutím na zelené šipky přejdete na sousední mapy.


METAR-TAF: